Sublimity, Oregon
Current Conditions -  °F | °C
As of 4:56 AM on Wednesday 22 Oct 2014 (Local Time) from KSLE Reporting Station
Overcast Overcast  
Wind Chill: 58°   Ceiling: 3800
Heat Index: 58°   Visibility: 10mi
Dew Point: 49°   Wind: 13mph
Humidity: 72%   Direction: 180°S
Pressure: 29.8"   Gusts: 22mph
Location:  44.83°N, 122.79°W
Report Text: KSLE 221156Z AUTO 18011G19KT 10SM BKN038 OVC050 14/09 A2980 RMK AO2 RAE23 SLP089 P0000 60007 70017 T01440094 10144 20133 55006
Loading
Personal Weather Stations






























Interactive Weather Map
Tropical Storm Tracking
New forecast layout! Learn more

10-Day Weather Forecast

Advertisements
Track Severe Weather on mobile